createdAt,value
2018-08-04T00:02:45.548Z,100628.83
2018-08-04T00:05:43.577Z,100637.61
2018-08-04T00:08:41.468Z,100636.87
2018-08-04T00:11:39.495Z,100635.62
2018-08-04T00:14:37.168Z,100635.92
2018-08-04T00:17:34.395Z,100635.02
2018-08-04T00:20:32.395Z,100634.98
2018-08-04T00:23:30.457Z,100640.67
2018-08-04T00:26:28.556Z,100638.56
2018-08-04T00:29:26.378Z,100635.20
2018-08-04T00:32:24.044Z,100625.80
2018-08-04T00:35:21.132Z,100629.56
2018-08-04T00:38:19.198Z,100625.84
2018-08-04T00:41:17.309Z,100627.95
2018-08-04T00:44:15.342Z,100627.13
2018-08-04T00:47:12.439Z,100621.95
2018-08-04T00:50:10.287Z,100629.43
2018-08-04T00:53:08.284Z,100630.97
2018-08-04T00:56:06.337Z,100633.65
2018-08-04T00:59:04.121Z,100636.19
2018-08-04T01:02:02.320Z,100626.39
2018-08-04T01:04:59.354Z,100630.20
2018-08-04T01:07:57.226Z,100620.88
2018-08-04T01:10:55.188Z,100622.73
2018-08-04T01:13:53.354Z,100629.30
2018-08-04T01:16:51.143Z,100626.19
2018-08-04T01:19:49.093Z,100636.12
2018-08-04T01:22:46.955Z,100629.73
2018-08-04T01:25:45.070Z,100624.84
2018-08-04T01:28:43.356Z,100631.59
2018-08-04T01:31:41.389Z,100623.03
2018-08-04T01:34:39.435Z,100624.58
2018-08-04T01:37:37.170Z,100627.83
2018-08-04T01:40:35.187Z,100618.20
2018-08-04T01:43:32.583Z,100619.16
2018-08-04T01:46:29.769Z,100612.16
2018-08-04T01:49:27.840Z,100610.95
2018-08-04T01:52:24.962Z,100609.22
2018-08-04T01:55:22.083Z,100613.50
2018-08-04T01:58:20.033Z,100614.27
2018-08-04T02:01:17.942Z,100624.55
2018-08-04T02:04:16.044Z,100628.25
2018-08-04T02:07:14.064Z,100619.58
2018-08-04T02:10:12.009Z,100625.70
2018-08-04T02:13:09.082Z,100629.89
2018-08-04T02:16:06.215Z,100628.28
2018-08-04T02:19:03.267Z,100631.98
2018-08-04T02:22:00.622Z,100633.44
2018-08-04T02:24:58.617Z,100625.77
2018-08-04T02:27:56.740Z,100622.31
2018-08-04T02:30:54.868Z,100621.04
2018-08-04T02:33:52.817Z,100621.72
2018-08-04T02:36:50.000Z,100624.70
2018-08-04T02:39:47.979Z,100621.08
2018-08-04T02:42:46.149Z,100622.14
2018-08-04T02:45:44.349Z,100617.41
2018-08-04T02:48:42.440Z,100617.61
2018-08-04T02:51:40.176Z,100625.80
2018-08-04T02:54:38.244Z,100621.52
2018-08-04T02:57:35.649Z,100610.68
2018-08-04T03:00:33.688Z,100605.95
2018-08-04T03:03:31.439Z,100605.19
2018-08-04T03:06:29.423Z,100603.16
2018-08-04T03:09:29.519Z,100613.52
2018-08-04T03:12:27.359Z,100621.90
2018-08-04T03:15:25.057Z,100638.30
2018-08-04T03:18:22.959Z,100630.68
2018-08-04T03:21:20.891Z,100627.39
2018-08-04T03:24:18.792Z,100626.76
2018-08-04T03:27:15.867Z,100636.93
2018-08-04T03:30:13.640Z,100635.88
2018-08-04T03:33:11.476Z,100638.23
2018-08-04T03:36:08.447Z,100629.42
2018-08-04T03:39:06.107Z,100629.22
2018-08-04T03:42:03.876Z,100636.39
2018-08-04T03:45:01.827Z,100633.72
2018-08-04T03:47:59.632Z,100626.84
2018-08-04T03:50:57.296Z,100620.14
2018-08-04T03:53:54.582Z,100613.62
2018-08-04T03:56:52.415Z,100608.12
2018-08-04T03:59:50.574Z,100622.09
2018-08-04T04:02:47.715Z,100623.56
2018-08-04T04:05:44.904Z,100626.33
2018-08-04T04:08:42.072Z,100623.34
2018-08-04T04:11:40.048Z,100613.40
2018-08-04T04:14:38.048Z,100619.56
2018-08-04T04:17:40.194Z,100622.69
2018-08-04T04:20:37.443Z,100623.80
2018-08-04T04:23:35.437Z,100624.39
2018-08-04T04:26:33.403Z,100613.50
2018-08-04T04:29:31.462Z,100609.89
2018-08-04T04:32:29.588Z,100616.00
2018-08-04T04:35:27.527Z,100611.25
2018-08-04T04:38:25.260Z,100616.69
2018-08-04T04:41:23.268Z,100618.27
2018-08-04T04:44:21.317Z,100608.34
2018-08-04T04:47:19.358Z,100605.87
2018-08-04T04:50:16.604Z,100607.04
2018-08-04T04:53:14.247Z,100609.33
2018-08-04T04:56:12.221Z,100601.94
2018-08-04T04:59:09.379Z,100598.57
2018-08-04T05:02:07.556Z,100590.52
2018-08-04T05:05:05.419Z,100596.66
2018-08-04T05:08:03.504Z,100596.86
2018-08-04T05:11:01.449Z,100590.27
2018-08-04T05:13:58.540Z,100594.33
2018-08-04T05:16:55.747Z,100593.34
2018-08-04T05:19:53.140Z,100602.84
2018-08-04T05:22:51.227Z,100614.83
2018-08-04T05:25:49.185Z,100623.27
2018-08-04T05:28:47.166Z,100624.79
2018-08-04T05:31:45.244Z,100619.33
2018-08-04T05:34:42.927Z,100614.52
2018-08-04T05:37:40.895Z,100612.50
2018-08-04T05:40:38.952Z,100604.90
2018-08-04T05:43:37.181Z,100601.43
2018-08-04T05:46:35.049Z,100615.00
2018-08-04T05:49:33.212Z,100617.20
2018-08-04T05:52:31.176Z,100630.69
2018-08-04T05:55:29.270Z,100634.63
2018-08-04T05:58:26.424Z,100645.47
2018-08-04T06:01:24.323Z,100635.38
2018-08-04T06:04:22.402Z,100639.40
2018-08-04T06:07:19.680Z,100638.71
2018-08-04T06:10:17.675Z,100638.06
2018-08-04T06:13:15.636Z,100648.69
2018-08-04T06:16:13.751Z,100651.66
2018-08-04T06:19:10.900Z,100645.84
2018-08-04T06:22:08.739Z,100648.55
2018-08-04T06:25:05.822Z,100643.11
2018-08-04T06:28:03.548Z,100642.61
2018-08-04T06:31:00.860Z,100636.94
2018-08-04T06:33:58.859Z,100635.48
2018-08-04T06:36:56.791Z,100644.27
2018-08-04T06:39:54.676Z,100654.66
2018-08-04T06:42:52.753Z,100658.33
2018-08-04T06:45:50.817Z,100660.49
2018-08-04T06:48:48.899Z,100654.91
2018-08-04T06:51:47.074Z,100655.33
2018-08-04T06:54:44.932Z,100635.06
2018-08-04T06:57:42.789Z,100633.94
2018-08-04T07:00:40.633Z,100641.28
2018-08-04T07:03:37.851Z,100640.30
2018-08-04T07:06:35.697Z,100639.70
2018-08-04T07:09:35.855Z,100646.59
2018-08-04T07:12:33.737Z,100647.19
2018-08-04T07:15:31.887Z,100631.45
2018-08-04T07:18:28.863Z,100629.91
2018-08-04T07:21:26.836Z,100640.06
2018-08-04T07:24:24.691Z,100639.33
2018-08-04T07:27:21.925Z,100637.34
2018-08-04T07:30:21.991Z,100631.28
2018-08-04T07:33:19.831Z,100639.95
2018-08-04T07:36:18.038Z,100639.08
2018-08-04T07:39:16.855Z,100645.11
2018-08-04T07:42:14.294Z,100647.06
2018-08-04T07:45:12.353Z,100646.40
2018-08-04T07:48:10.377Z,100647.13
2018-08-04T07:51:08.290Z,100661.34
2018-08-04T07:54:06.378Z,100651.55
2018-08-04T07:57:04.274Z,100646.78
2018-08-04T08:00:02.252Z,100656.52
2018-08-04T08:03:00.307Z,100639.79
2018-08-04T08:05:57.939Z,100646.56
2018-08-04T08:08:55.879Z,100642.59
2018-08-04T08:11:53.082Z,100648.43
2018-08-04T08:14:51.184Z,100637.68
2018-08-04T08:17:49.126Z,100644.66
2018-08-04T08:20:46.994Z,100641.16
2018-08-04T08:23:44.054Z,100645.60
2018-08-04T08:26:42.143Z,100649.27
2018-08-04T08:29:39.259Z,100655.85
2018-08-04T08:32:37.098Z,100655.75
2018-08-04T08:35:35.079Z,100647.34
2018-08-04T08:38:32.145Z,100650.50
2018-08-04T08:41:30.355Z,100652.59
2018-08-04T08:44:28.359Z,100659.42
2018-08-04T08:47:25.468Z,100655.07
2018-08-04T08:50:24.420Z,100653.41
2018-08-04T08:53:22.508Z,100647.13
2018-08-04T08:56:20.692Z,100654.77
2018-08-04T08:59:17.884Z,100651.59
2018-08-04T09:02:15.073Z,100651.91
2018-08-04T09:05:13.356Z,100650.30
2018-08-04T09:08:11.283Z,100643.64
2018-08-04T09:11:08.326Z,100635.66
2018-08-04T09:14:06.307Z,100630.34
2018-08-04T09:17:04.249Z,100631.78
2018-08-04T09:20:02.133Z,100638.64
2018-08-04T09:23:00.164Z,100629.81
2018-08-04T09:25:57.655Z,100634.67
2018-08-04T09:28:55.713Z,100631.35
2018-08-04T09:31:53.520Z,100630.27
2018-08-04T09:34:50.932Z,100630.44
2018-08-04T09:37:48.848Z,100640.16
2018-08-04T09:40:46.331Z,100630.17
2018-08-04T09:43:43.947Z,100641.20
2018-08-04T09:46:41.339Z,100644.30
2018-08-04T09:49:39.493Z,100643.11
2018-08-04T09:52:36.826Z,100647.83
2018-08-04T09:55:33.973Z,100649.85
2018-08-04T09:58:31.563Z,100657.32
2018-08-04T10:01:35.783Z,100649.24
2018-08-04T10:04:33.886Z,100647.23
2018-08-04T10:07:31.943Z,100652.39
2018-08-04T10:10:29.943Z,100652.95
2018-08-04T10:13:28.039Z,100672.48
2018-08-04T10:16:25.879Z,100668.13
2018-08-04T10:19:23.804Z,100667.74
2018-08-04T10:22:21.784Z,100666.19
2018-08-04T10:25:19.473Z,100667.77
2018-08-04T10:28:16.650Z,100665.02
2018-08-04T10:31:14.540Z,100657.98
2018-08-04T10:34:12.689Z,100659.56
2018-08-04T10:37:10.444Z,100654.23
2018-08-04T10:40:07.813Z,100656.59
2018-08-04T10:43:05.081Z,100656.88
2018-08-04T10:46:02.735Z,100636.52
2018-08-04T10:49:00.568Z,100638.50
2018-08-04T10:51:58.175Z,100620.14
2018-08-04T10:54:55.631Z,100616.48
2018-08-04T10:57:53.639Z,100613.91
2018-08-04T11:00:51.712Z,100611.59
2018-08-04T11:03:49.328Z,100612.33
2018-08-04T11:06:47.347Z,100614.23
2018-08-04T11:09:45.343Z,100616.33
2018-08-04T11:12:42.602Z,100606.11
2018-08-04T11:15:40.675Z,100606.43
2018-08-04T11:18:38.516Z,100614.00
2018-08-04T11:21:36.645Z,100606.91
2018-08-04T11:24:34.339Z,100597.96
2018-08-04T11:27:32.439Z,100596.32
2018-08-04T11:30:31.256Z,100603.80
2018-08-04T11:33:29.223Z,100603.77
2018-08-04T11:36:27.105Z,100606.45
2018-08-04T11:39:25.263Z,100614.01
2018-08-04T11:42:23.339Z,100607.04
2018-08-04T11:45:21.311Z,100619.79
2018-08-04T11:48:18.583Z,100608.66
2018-08-04T11:51:16.506Z,100610.29
2018-08-04T11:54:13.980Z,100604.72
2018-08-04T11:57:11.458Z,100600.63
2018-08-04T12:00:08.444Z,100602.20
2018-08-04T12:03:06.113Z,100603.97
2018-08-04T12:06:03.236Z,100607.94
2018-08-04T12:09:00.708Z,100603.08
2018-08-04T12:11:57.933Z,100594.98
2018-08-04T12:14:55.411Z,100598.99
2018-08-04T12:17:52.890Z,100604.80
2018-08-04T12:20:50.033Z,100594.00
2018-08-04T12:23:47.277Z,100594.16
2018-08-04T12:26:45.355Z,100597.78
2018-08-04T12:29:43.135Z,100599.72
2018-08-04T12:32:41.232Z,100600.09
2018-08-04T12:35:39.148Z,100597.49
2018-08-04T12:38:37.071Z,100595.91
2018-08-04T12:41:34.314Z,100588.06
2018-08-04T12:44:32.422Z,100592.47
2018-08-04T12:47:30.478Z,100594.14
2018-08-04T12:50:28.249Z,100587.41
2018-08-04T12:53:26.325Z,100580.13
2018-08-04T12:56:24.279Z,100578.21
2018-08-04T12:59:21.964Z,100571.32
2018-08-04T13:02:19.944Z,100568.30
2018-08-04T13:05:17.421Z,100570.91
2018-08-04T13:08:14.564Z,100569.60
2018-08-04T13:11:11.850Z,100576.75
2018-08-04T13:14:09.255Z,100569.18
2018-08-04T13:17:06.329Z,100575.53
2018-08-04T13:20:03.491Z,100569.50
2018-08-04T13:23:01.054Z,100567.84
2018-08-04T13:25:58.606Z,100574.36
2018-08-04T13:28:56.286Z,100565.46
2018-08-04T13:31:54.416Z,100560.50
2018-08-04T13:34:52.340Z,100561.19
2018-08-04T13:37:50.009Z,100563.16
2018-08-04T13:40:47.877Z,100554.66
2018-08-04T13:43:45.519Z,100557.28
2018-08-04T13:46:50.871Z,100565.28
2018-08-04T13:49:48.226Z,100561.59
2018-08-04T13:52:46.213Z,100562.84
2018-08-04T13:55:43.419Z,100558.08
2018-08-04T13:58:41.494Z,100554.33
2018-08-04T14:01:39.472Z,100558.53
2018-08-04T14:04:37.656Z,100555.89
2018-08-04T14:07:35.687Z,100553.52
2018-08-04T14:10:32.723Z,100552.86
2018-08-04T14:13:30.359Z,100551.79
2018-08-04T14:16:27.753Z,100545.17
2018-08-04T14:19:24.971Z,100544.44
2018-08-04T14:22:22.264Z,100539.42
2018-08-04T14:25:19.928Z,100540.16
2018-08-04T14:28:17.187Z,100536.66
2018-08-04T14:31:14.555Z,100537.02
2018-08-04T14:34:11.915Z,100542.83
2018-08-04T14:37:09.098Z,100536.55
2018-08-04T14:40:06.539Z,100525.10
2018-08-04T14:43:03.819Z,100522.18
2018-08-04T14:46:01.342Z,100525.13
2018-08-04T14:48:59.276Z,100526.23
2018-08-04T14:51:57.275Z,100526.53
2018-08-04T14:54:55.191Z,100517.91
2018-08-04T14:57:53.150Z,100531.16
2018-08-04T15:00:50.395Z,100524.64
2018-08-04T15:03:48.605Z,100518.33
2018-08-04T15:06:46.568Z,100533.13
2018-08-04T15:09:43.802Z,100524.05
2018-08-04T15:12:41.984Z,100514.61
2018-08-04T15:15:39.907Z,100519.42
2018-08-04T15:18:37.746Z,100508.41
2018-08-04T15:21:34.937Z,100510.35
2018-08-04T15:24:32.367Z,100503.47
2018-08-04T15:27:30.174Z,100499.00
2018-08-04T15:30:27.702Z,100502.55
2018-08-04T15:33:25.056Z,100503.95
2018-08-04T15:36:22.198Z,100500.22
2018-08-04T15:39:21.454Z,100496.53
2018-08-04T15:42:18.478Z,100506.36
2018-08-04T15:45:15.651Z,100502.35
2018-08-04T15:48:13.080Z,100504.89
2018-08-04T15:51:10.351Z,100505.84
2018-08-04T15:54:07.789Z,100496.92
2018-08-04T15:57:04.939Z,100500.93
2018-08-04T16:00:01.965Z,100498.03
2018-08-04T16:03:00.092Z,100493.63
2018-08-04T16:05:57.969Z,100493.97
2018-08-04T16:08:56.808Z,100494.25
2018-08-04T16:11:54.019Z,100487.91
2018-08-04T16:14:52.111Z,100495.72
2018-08-04T16:17:50.227Z,100483.41
2018-08-04T16:20:48.128Z,100495.66
2018-08-04T16:23:46.123Z,100498.13
2018-08-04T16:26:44.042Z,100505.40
2018-08-04T16:29:41.167Z,100506.35
2018-08-04T16:32:38.395Z,100505.16
2018-08-04T16:35:36.383Z,100508.69
2018-08-04T16:38:33.523Z,100495.08
2018-08-04T16:41:31.140Z,100505.55
2018-08-04T16:44:28.256Z,100509.34
2018-08-04T16:47:25.586Z,100508.71
2018-08-04T16:50:23.568Z,100517.51
2018-08-04T16:53:20.974Z,100511.13
2018-08-04T16:56:17.981Z,100518.59
2018-08-04T16:59:15.619Z,100520.96
2018-08-04T17:02:12.955Z,100527.51
2018-08-04T17:05:10.604Z,100521.97
2018-08-04T17:08:07.771Z,100516.78
2018-08-04T17:11:04.986Z,100523.18
2018-08-04T17:14:02.868Z,100516.05
2018-08-04T17:17:00.863Z,100525.12
2018-08-04T17:19:58.929Z,100522.33
2018-08-04T17:22:57.008Z,100520.73
2018-08-04T17:25:54.383Z,100524.45
2018-08-04T17:28:52.316Z,100529.14
2018-08-04T17:31:50.213Z,100526.44
2018-08-04T17:34:47.367Z,100537.08
2018-08-04T17:37:45.607Z,100546.30
2018-08-04T17:40:43.639Z,100546.35
2018-08-04T17:43:40.558Z,100547.92
2018-08-04T17:46:37.816Z,100556.86
2018-08-04T17:49:35.388Z,100560.30
2018-08-04T17:52:32.328Z,100565.17
2018-08-04T17:55:29.551Z,100553.91
2018-08-04T17:58:26.947Z,100554.36
2018-08-04T18:01:24.623Z,100553.65
2018-08-04T18:04:22.388Z,100563.84
2018-08-04T18:07:19.666Z,100559.42
2018-08-04T18:10:17.044Z,100551.84
2018-08-04T18:13:15.107Z,100568.00
2018-08-04T18:16:13.107Z,100565.80
2018-08-04T18:19:10.527Z,100560.76
2018-08-04T18:22:07.776Z,100568.31
2018-08-04T18:25:05.659Z,100570.03
2018-08-04T18:28:03.740Z,100565.59
2018-08-04T18:31:00.972Z,100577.56
2018-08-04T18:33:58.140Z,100580.37
2018-08-04T18:36:55.591Z,100582.38
2018-08-04T18:39:52.950Z,100585.27
2018-08-04T18:42:49.996Z,100589.45
2018-08-04T18:45:47.871Z,100593.20
2018-08-04T18:48:44.957Z,100592.91
2018-08-04T18:51:43.055Z,100587.77
2018-08-04T18:54:40.383Z,100596.98
2018-08-04T18:57:37.622Z,100603.92
2018-08-04T19:00:34.898Z,100619.13
2018-08-04T19:03:32.409Z,100602.58
2018-08-04T19:06:29.664Z,100619.41
2018-08-04T19:09:29.710Z,100629.68
2018-08-04T19:12:26.771Z,100629.61
2018-08-04T19:15:24.173Z,100634.13
2018-08-04T19:18:21.643Z,100633.37
2018-08-04T19:21:19.114Z,100640.50
2018-08-04T19:24:16.138Z,100646.59
2018-08-04T19:27:14.120Z,100647.28
2018-08-04T19:30:11.780Z,100647.57
2018-08-04T19:33:08.894Z,100645.48
2018-08-04T19:36:07.060Z,100652.06
2018-08-04T19:39:05.062Z,100662.06
2018-08-04T19:42:03.070Z,100665.41
2018-08-04T19:45:01.125Z,100671.33
2018-08-04T19:47:58.584Z,100665.27
2018-08-04T19:50:55.760Z,100670.69
2018-08-04T19:53:52.801Z,100680.65
2018-08-04T19:56:50.860Z,100677.60
2018-08-04T19:59:47.967Z,100683.43
2018-08-04T20:02:45.575Z,100686.03
2018-08-04T20:05:43.362Z,100687.11
2018-08-04T20:08:41.316Z,100686.78
2018-08-04T20:11:39.444Z,100693.67
2018-08-04T20:14:36.897Z,100698.64
2018-08-04T20:17:34.212Z,100700.73
2018-08-04T20:20:31.400Z,100701.59
2018-08-04T20:23:29.000Z,100706.34
2018-08-04T20:26:26.124Z,100715.58
2018-08-04T20:29:24.361Z,100713.61
2018-08-04T20:32:21.864Z,100707.45
2018-08-04T20:35:19.325Z,100712.56
2018-08-04T20:38:16.537Z,100713.64
2018-08-04T20:41:14.663Z,100709.30
2018-08-04T20:44:12.636Z,100718.07
2018-08-04T20:47:10.835Z,100714.68
2018-08-04T20:50:08.880Z,100717.07
2018-08-04T20:53:06.302Z,100724.72
2018-08-04T20:56:03.843Z,100730.70
2018-08-04T20:59:01.668Z,100727.61
2018-08-04T21:02:33.280Z,100728.74
2018-08-04T21:05:30.459Z,100726.67
2018-08-04T21:08:27.853Z,100735.74
2018-08-04T21:11:25.848Z,100738.55
2018-08-04T21:14:23.715Z,100744.16
2018-08-04T21:17:20.856Z,100755.91
2018-08-04T21:20:18.535Z,100759.83
2018-08-04T21:23:15.597Z,100750.89
2018-08-04T21:26:13.044Z,100756.45
2018-08-04T21:29:10.289Z,100752.69
2018-08-04T21:32:07.949Z,100763.48
2018-08-04T21:35:05.631Z,100772.02
2018-08-04T21:38:02.715Z,100767.05
2018-08-04T21:40:59.872Z,100767.88
2018-08-04T21:43:57.205Z,100767.04
2018-08-04T21:46:57.499Z,100769.09
2018-08-04T21:49:54.854Z,100771.07
2018-08-04T21:52:51.828Z,100768.54
2018-08-04T21:55:49.821Z,100771.03
2018-08-04T21:58:47.907Z,100773.71
2018-08-04T22:01:45.889Z,100772.52
2018-08-04T22:04:43.729Z,100773.61
2018-08-04T22:08:02.056Z,100769.47
2018-08-04T22:11:00.086Z,100772.41
2018-08-04T22:13:57.531Z,100769.09
2018-08-04T22:16:54.880Z,100777.19
2018-08-04T22:19:52.110Z,100778.73
2018-08-04T22:22:49.191Z,100775.84
2018-08-04T22:25:47.234Z,100772.64
2018-08-04T22:28:44.232Z,100775.09
2018-08-04T22:31:41.669Z,100785.30
2018-08-04T22:34:39.360Z,100787.27
2018-08-04T22:37:36.976Z,100782.09
2018-08-04T22:40:34.536Z,100783.35
2018-08-04T22:43:31.926Z,100788.27
2018-08-04T22:46:31.981Z,100781.31
2018-08-04T22:49:29.120Z,100784.10
2018-08-04T22:52:27.195Z,100787.72
2018-08-04T22:55:24.376Z,100791.84
2018-08-04T22:58:22.252Z,100791.73
2018-08-04T23:01:19.538Z,100788.98
2018-08-04T23:04:17.598Z,100787.65
2018-08-04T23:07:15.640Z,100801.72
2018-08-04T23:10:13.811Z,100804.50
2018-08-04T23:13:11.770Z,100801.69
2018-08-04T23:16:09.882Z,100805.12
2018-08-04T23:19:07.947Z,100808.59
2018-08-04T23:22:06.114Z,100803.10
2018-08-04T23:25:04.012Z,100798.60
2018-08-04T23:28:01.936Z,100804.64
2018-08-04T23:30:59.537Z,100807.80
2018-08-04T23:33:57.195Z,100812.09
2018-08-04T23:36:54.465Z,100814.39
2018-08-04T23:39:51.999Z,100819.45
2018-08-04T23:42:50.011Z,100818.80
2018-08-04T23:45:47.932Z,100822.14
2018-08-04T23:48:45.147Z,100826.89
2018-08-04T23:51:42.692Z,100825.59
2018-08-04T23:54:40.047Z,100827.02
2018-08-04T23:57:38.111Z,100824.05
